RAMEN44 YBNS-YWSL
Flight info
| Callsign | RAMEN44 |
|---|---|
| Flight time | 0h 15m |
| Altitude | 1000 |
| Route | YBNS-VFR-YWSL |
| Aircraft | H60/L-L/C |
Departure
| Time | 2026-04-17 09:43 |
|---|---|
| Airport | Bairnsdale Airport (YBNS) |
Arrival
| Time | 2026-04-17 09:59 |
|---|---|
| Airport | West Sale Airport (YWSL) |
| Time | Latitude | Longitude | Altitude | Speed | Heading |
|---|---|---|---|---|---|
| 2026-04-17 09:41 | -37.88050 | 147.57071 | 163 ft | 0 kts | 283° |
| 2026-04-17 09:42 | -37.88049 | 147.57074 | 170 ft | 2 kts | 285° |
| 2026-04-17 09:43 | -37.88012 | 147.57099 | 198 ft | 4 kts | 303° |
| 2026-04-17 09:43 | -37.87989 | 147.57012 | 230 ft | 29 kts | 308° |
| 2026-04-17 09:43 | -37.87859 | 147.56553 | 511 ft | 78 kts | 301° |
| 2026-04-17 09:43 | -37.87579 | 147.55836 | 834 ft | 100 kts | 298° |
| 2026-04-17 09:44 | -37.87247 | 147.55021 | 787 ft | 110 kts | 298° |
| 2026-04-17 09:44 | -37.87054 | 147.54148 | 771 ft | 95 kts | 279° |
| 2026-04-17 09:44 | -37.87169 | 147.53383 | 999 ft | 84 kts | 262° |
| 2026-04-17 09:44 | -37.87315 | 147.52670 | 1074 ft | 84 kts | 260° |
| 2026-04-17 09:45 | -37.87437 | 147.51936 | 1062 ft | 86 kts | 260° |
| 2026-04-17 09:45 | -37.87573 | 147.51191 | 1074 ft | 88 kts | 260° |
| 2026-04-17 09:45 | -37.87730 | 147.50316 | 1002 ft | 117 kts | 259° |
| 2026-04-17 09:45 | -37.87933 | 147.49274 | 1023 ft | 121 kts | 257° |
| 2026-04-17 09:46 | -37.88149 | 147.48167 | 979 ft | 137 kts | 257° |
| 2026-04-17 09:46 | -37.88384 | 147.46951 | 969 ft | 145 kts | 257° |
| 2026-04-17 09:46 | -37.88626 | 147.45691 | 972 ft | 149 kts | 257° |
| 2026-04-17 09:46 | -37.88872 | 147.44414 | 977 ft | 150 kts | 257° |
| 2026-04-17 09:47 | -37.89117 | 147.43144 | 981 ft | 150 kts | 257° |
| 2026-04-17 09:47 | -37.89365 | 147.41861 | 982 ft | 150 kts | 257° |
| 2026-04-17 09:47 | -37.89615 | 147.40574 | 986 ft | 150 kts | 257° |
| 2026-04-17 09:47 | -37.89865 | 147.39288 | 985 ft | 150 kts | 257° |
| 2026-04-17 09:48 | -37.90114 | 147.38001 | 987 ft | 150 kts | 257° |
| 2026-04-17 09:48 | -37.90365 | 147.36712 | 989 ft | 150 kts | 257° |
| 2026-04-17 09:48 | -37.90615 | 147.35426 | 986 ft | 150 kts | 257° |
| 2026-04-17 09:48 | -37.90865 | 147.34140 | 989 ft | 150 kts | 257° |
| 2026-04-17 09:49 | -37.91115 | 147.32854 | 986 ft | 150 kts | 257° |
| 2026-04-17 09:49 | -37.91365 | 147.31567 | 987 ft | 150 kts | 257° |
| 2026-04-17 09:49 | -37.91615 | 147.30280 | 988 ft | 150 kts | 257° |
| 2026-04-17 09:49 | -37.91865 | 147.28995 | 987 ft | 150 kts | 257° |
| 2026-04-17 09:50 | -37.92112 | 147.27725 | 987 ft | 150 kts | 257° |
| 2026-04-17 09:50 | -37.92362 | 147.26439 | 993 ft | 150 kts | 257° |
| 2026-04-17 09:50 | -37.92612 | 147.25153 | 987 ft | 150 kts | 257° |
| 2026-04-17 09:50 | -37.92864 | 147.23865 | 987 ft | 151 kts | 257° |
| 2026-04-17 09:51 | -37.93115 | 147.22577 | 987 ft | 151 kts | 257° |
| 2026-04-17 09:51 | -37.93365 | 147.21290 | 987 ft | 150 kts | 257° |
| 2026-04-17 09:51 | -37.93615 | 147.20005 | 989 ft | 150 kts | 257° |
| 2026-04-17 09:51 | -37.93865 | 147.18718 | 987 ft | 150 kts | 257° |
| 2026-04-17 09:52 | -37.94116 | 147.17430 | 987 ft | 150 kts | 257° |
| 2026-04-17 09:52 | -37.94367 | 147.16143 | 991 ft | 150 kts | 257° |
| 2026-04-17 09:52 | -37.94614 | 147.14878 | 990 ft | 139 kts | 257° |
| 2026-04-17 09:52 | -37.94833 | 147.13749 | 997 ft | 127 kts | 257° |
| 2026-04-17 09:53 | -37.95039 | 147.12688 | 995 ft | 124 kts | 257° |
| 2026-04-17 09:53 | -37.95245 | 147.11631 | 992 ft | 123 kts | 257° |
| 2026-04-17 09:53 | -37.95451 | 147.10574 | 991 ft | 124 kts | 257° |
| 2026-04-17 09:53 | -37.95710 | 147.09516 | 989 ft | 130 kts | 250° |
| 2026-04-17 09:54 | -37.96312 | 147.08705 | 985 ft | 130 kts | 218° |
| 2026-04-17 09:54 | -37.97115 | 147.08264 | 996 ft | 122 kts | 207° |
| 2026-04-17 09:54 | -37.97889 | 147.07799 | 991 ft | 123 kts | 207° |
| 2026-04-17 09:54 | -37.98665 | 147.07331 | 989 ft | 125 kts | 207° |
| 2026-04-17 09:55 | -37.99474 | 147.06848 | 984 ft | 127 kts | 207° |
| 2026-04-17 09:55 | -38.00231 | 147.06391 | 987 ft | 126 kts | 207° |
| 2026-04-17 09:55 | -38.01017 | 147.05916 | 994 ft | 117 kts | 207° |
| 2026-04-17 09:55 | -38.01726 | 147.05491 | 990 ft | 117 kts | 207° |
| 2026-04-17 09:56 | -38.02575 | 147.04975 | 973 ft | 149 kts | 207° |
| 2026-04-17 09:56 | -38.03466 | 147.04436 | 995 ft | 143 kts | 207° |
| 2026-04-17 09:56 | -38.04324 | 147.03920 | 1024 ft | 125 kts | 207° |
| 2026-04-17 09:56 | -38.05087 | 147.03464 | 1108 ft | 124 kts | 207° |
| 2026-04-17 09:57 | -38.05895 | 147.02977 | 927 ft | 133 kts | 207° |
| 2026-04-17 09:57 | -38.06721 | 147.02478 | 833 ft | 130 kts | 207° |
| 2026-04-17 09:57 | -38.07533 | 147.01987 | 802 ft | 129 kts | 207° |
| 2026-04-17 09:57 | -38.08229 | 147.01540 | 876 ft | 97 kts | 210° |
| 2026-04-17 09:58 | -38.08714 | 147.00970 | 792 ft | 97 kts | 228° |
| 2026-04-17 09:58 | -38.09092 | 147.00192 | 487 ft | 110 kts | 244° |
| 2026-04-17 09:58 | -38.09286 | 146.99249 | 369 ft | 107 kts | 261° |
| 2026-04-17 09:58 | -38.09288 | 146.98371 | 248 ft | 93 kts | 271° |
| 2026-04-17 09:59 | -38.09229 | 146.97653 | 133 ft | 68 kts | 276° |
| 2026-04-17 09:59 | -38.09164 | 146.97230 | 88 ft | 28 kts | 276° |
| 2026-04-17 09:59 | -38.09168 | 146.97143 | 100 ft | 8 kts | 240° |
| 2026-04-17 09:59 | -38.09202 | 146.97040 | 93 ft | 10 kts | 205° |
| 2026-04-17 10:00 | -38.09281 | 146.97071 | 87 ft | 10 kts | 157° |
| 2026-04-17 10:00 | -38.09308 | 146.97180 | 87 ft | 16 kts | 131° |
| 2026-04-17 10:00 | -38.09310 | 146.97277 | 83 ft | 4 kts | 131° |
| 2026-04-17 10:00 | -38.09307 | 146.97293 | 72 ft | 0 kts | 134° |
| 2026-04-17 10:03 | -38.09308 | 146.97294 | 72 ft | 1 kts | 134° |
| 2026-04-17 10:04 | -38.09327 | 146.97298 | 88 ft | 7 kts | 89° |
| 2026-04-17 10:04 | -38.09338 | 146.97321 | 74 ft | 0 kts | 62° |